createdAt,value
2018-03-25T00:01:03.625Z,8.67
2018-03-25T00:03:31.077Z,10.40
2018-03-25T00:05:58.562Z,13.40
2018-03-25T00:08:26.024Z,10.40
2018-03-25T00:10:53.501Z,10.60
2018-03-25T00:13:21.758Z,6.83
2018-03-25T00:15:49.250Z,10.07
2018-03-25T00:18:16.730Z,11.70
2018-03-25T00:20:44.205Z,8.90
2018-03-25T00:23:11.764Z,11.43
2018-03-25T00:25:39.217Z,6.33
2018-03-25T00:28:06.728Z,13.00
2018-03-25T00:30:34.240Z,14.90
2018-03-25T00:33:01.705Z,11.90
2018-03-25T00:35:29.183Z,16.90
2018-03-25T00:37:57.410Z,6.00
2018-03-25T00:40:24.888Z,4.83
2018-03-25T00:42:52.436Z,4.83
2018-03-25T00:45:20.019Z,7.43
2018-03-25T00:47:47.469Z,7.03
2018-03-25T00:50:14.991Z,5.83
2018-03-25T00:52:42.468Z,6.47
2018-03-25T00:55:09.925Z,8.07
2018-03-25T00:57:37.404Z,6.03
2018-03-25T01:00:05.777Z,9.27
2018-03-25T01:02:33.257Z,6.50
2018-03-25T01:05:00.716Z,5.60
2018-03-25T01:07:28.237Z,6.37
2018-03-25T01:09:55.772Z,5.73
2018-03-25T01:12:23.337Z,5.13
2018-03-25T01:14:51.558Z,5.33
2018-03-25T01:17:19.080Z,6.67
2018-03-25T01:19:46.620Z,6.60
2018-03-25T01:22:14.189Z,5.43
2018-03-25T01:24:41.648Z,6.93
2018-03-25T01:27:09.129Z,5.03
2018-03-25T01:29:37.346Z,4.50
2018-03-25T01:32:05.221Z,4.17
2018-03-25T01:34:32.706Z,6.93
2018-03-25T01:37:00.156Z,5.33
2018-03-25T01:39:27.653Z,5.10
2018-03-25T01:41:55.165Z,3.30
2018-03-25T01:44:22.626Z,3.20
2018-03-25T01:46:50.110Z,2.53
2018-03-25T01:49:18.449Z,6.30
2018-03-25T01:51:46.708Z,2.37
2018-03-25T01:54:14.197Z,5.20
2018-03-25T01:56:42.422Z,5.57
2018-03-25T01:59:09.905Z,3.77
2018-03-25T02:01:37.477Z,4.40
2018-03-25T02:04:04.957Z,3.60
2018-03-25T02:06:33.173Z,1.90
2018-03-25T02:09:00.661Z,3.60
2018-03-25T02:11:28.209Z,2.47
2018-03-25T02:13:56.460Z,2.43
2018-03-25T02:16:23.922Z,7.10
2018-03-25T02:18:51.404Z,4.20
2018-03-25T02:21:18.890Z,2.60
2018-03-25T02:23:47.268Z,2.50
2018-03-25T02:26:15.714Z,2.73
2018-03-25T02:28:43.873Z,2.90
2018-03-25T02:31:11.330Z,2.77
2018-03-25T02:33:38.821Z,7.10
2018-03-25T02:36:07.036Z,3.27
2018-03-25T02:38:34.507Z,6.53
2018-03-25T02:41:01.980Z,8.40
2018-03-25T02:43:29.477Z,5.40
2018-03-25T02:45:57.689Z,6.30
2018-03-25T02:48:25.151Z,6.10
2018-03-25T02:50:52.626Z,3.17
2018-03-25T02:53:20.190Z,6.47
2018-03-25T02:55:47.666Z,2.67
2018-03-25T02:58:16.529Z,4.93
2018-03-25T03:00:44.099Z,3.23
2018-03-25T03:03:11.543Z,3.67
2018-03-25T03:05:39.002Z,2.83
2018-03-25T03:08:06.543Z,3.47
2018-03-25T03:10:34.005Z,2.30
2018-03-25T03:13:01.565Z,2.40
2018-03-25T03:15:29.119Z,5.27
2018-03-25T03:17:56.578Z,3.93
2018-03-25T03:20:24.857Z,4.30
2018-03-25T03:22:52.412Z,5.60
2018-03-25T03:25:19.875Z,7.30
2018-03-25T03:27:47.430Z,5.43
2018-03-25T03:30:14.903Z,9.27
2018-03-25T03:32:43.167Z,9.13
2018-03-25T03:35:10.641Z,7.20
2018-03-25T03:37:38.868Z,5.03
2018-03-25T03:40:07.083Z,5.60
2018-03-25T03:42:35.547Z,2.87
2018-03-25T03:45:03.781Z,4.23
2018-03-25T03:47:31.239Z,4.57
2018-03-25T03:49:58.739Z,2.12
2018-03-25T03:52:27.010Z,3.60
2018-03-25T03:54:54.476Z,2.40
2018-03-25T03:57:22.737Z,5.03
2018-03-25T03:59:50.297Z,3.47
2018-03-25T04:02:17.860Z,3.03
2018-03-25T04:04:46.110Z,3.12
2018-03-25T04:07:13.579Z,3.28
2018-03-25T04:09:41.040Z,4.30
2018-03-25T04:12:08.598Z,1.90
2018-03-25T04:14:36.064Z,2.50
2018-03-25T04:17:04.292Z,2.50
2018-03-25T04:19:31.772Z,2.37
2018-03-25T04:21:59.243Z,5.13
2018-03-25T04:24:27.471Z,2.62
2018-03-25T04:26:55.038Z,1.83
2018-03-25T04:29:22.521Z,3.03
2018-03-25T04:31:49.982Z,2.93
2018-03-25T04:34:17.546Z,2.43
2018-03-25T04:36:45.786Z,1.70
2018-03-25T04:39:13.255Z,1.67
2018-03-25T04:41:40.727Z,1.98
2018-03-25T04:44:08.182Z,2.43
2018-03-25T04:46:36.451Z,3.60
2018-03-25T04:49:03.929Z,3.03
2018-03-25T04:51:32.195Z,3.10
2018-03-25T04:54:00.430Z,2.20
2018-03-25T04:56:28.016Z,2.83
2018-03-25T04:58:55.566Z,3.67
2018-03-25T05:01:23.342Z,3.07
2018-03-25T05:03:50.893Z,3.37
2018-03-25T05:06:18.357Z,2.08
2018-03-25T05:08:46.603Z,3.33
2018-03-25T05:11:14.220Z,2.50
2018-03-25T05:13:41.679Z,2.12
2018-03-25T05:16:09.131Z,2.83
2018-03-25T05:18:36.611Z,4.33
2018-03-25T05:21:04.106Z,2.60
2018-03-25T05:23:31.591Z,4.40
2018-03-25T05:25:59.839Z,2.65
2018-03-25T05:28:27.298Z,3.33
2018-03-25T05:30:55.524Z,1.40
2018-03-25T05:33:23.006Z,2.83
2018-03-25T05:35:50.483Z,3.77
2018-03-25T05:38:17.938Z,3.93
2018-03-25T05:40:45.432Z,3.25
2018-03-25T05:43:12.947Z,1.67
2018-03-25T05:45:40.437Z,1.75
2018-03-25T05:48:07.908Z,2.60
2018-03-25T05:50:35.377Z,2.47
2018-03-25T05:53:02.850Z,2.83
2018-03-25T05:55:30.335Z,2.85
2018-03-25T05:57:58.573Z,3.78
2018-03-25T06:00:26.036Z,2.70
2018-03-25T06:02:53.515Z,2.70
2018-03-25T06:05:21.068Z,2.30
2018-03-25T06:07:48.635Z,3.37
2018-03-25T06:10:16.098Z,2.93
2018-03-25T06:12:44.359Z,2.30
2018-03-25T06:15:11.817Z,2.50
2018-03-25T06:17:39.374Z,2.00
2018-03-25T06:20:06.943Z,2.40
2018-03-25T06:22:35.215Z,2.30
2018-03-25T06:25:02.879Z,2.50
2018-03-25T06:27:30.334Z,2.00
2018-03-25T06:29:58.599Z,1.63
2018-03-25T06:32:26.258Z,2.08
2018-03-25T06:34:53.773Z,1.53
2018-03-25T06:37:21.273Z,2.33
2018-03-25T06:39:48.744Z,3.40
2018-03-25T06:42:16.967Z,3.43
2018-03-25T06:44:44.430Z,1.43
2018-03-25T06:47:11.916Z,2.27
2018-03-25T06:49:39.466Z,3.77
2018-03-25T06:52:06.958Z,2.50
2018-03-25T06:54:34.581Z,2.30
2018-03-25T06:57:02.048Z,1.83
2018-03-25T06:59:29.503Z,1.43
2018-03-25T07:01:57.077Z,2.10
2018-03-25T07:04:24.526Z,2.77
2018-03-25T07:06:52.756Z,1.87
2018-03-25T07:09:20.344Z,2.30
2018-03-25T07:11:47.902Z,2.17
2018-03-25T07:14:15.435Z,2.27
2018-03-25T07:16:43.658Z,2.13
2018-03-25T07:19:11.904Z,1.40
2018-03-25T07:21:39.368Z,7.20
2018-03-25T07:24:07.639Z,1.57
2018-03-25T07:26:35.186Z,1.63
2018-03-25T07:29:02.651Z,2.87
2018-03-25T07:31:30.127Z,3.30
2018-03-25T07:33:58.352Z,5.30
2018-03-25T07:36:25.822Z,5.00
2018-03-25T07:38:53.396Z,3.10
2018-03-25T07:41:20.952Z,4.07
2018-03-25T07:43:48.505Z,3.70
2018-03-25T07:46:15.986Z,4.83
2018-03-25T07:48:44.216Z,3.03
2018-03-25T07:51:11.670Z,3.73
2018-03-25T07:53:39.253Z,4.57
2018-03-25T07:56:06.726Z,3.20
2018-03-25T07:58:34.953Z,6.40
2018-03-25T08:01:02.447Z,2.53
2018-03-25T08:03:29.905Z,4.73
2018-03-25T08:05:58.136Z,4.87
2018-03-25T08:08:25.617Z,4.20
2018-03-25T08:10:53.084Z,6.80
2018-03-25T08:13:20.636Z,4.53
2018-03-25T08:15:48.099Z,9.17
2018-03-25T08:18:15.561Z,6.67
2018-03-25T08:20:43.110Z,5.07
2018-03-25T08:23:10.582Z,7.80
2018-03-25T08:25:38.846Z,6.17
2018-03-25T08:28:06.512Z,5.70
2018-03-25T08:30:33.996Z,9.53
2018-03-25T08:33:01.518Z,10.50
2018-03-25T08:35:28.980Z,10.73
2018-03-25T08:37:57.252Z,9.87
2018-03-25T08:40:24.810Z,7.63
2018-03-25T08:42:52.353Z,7.93
2018-03-25T08:45:19.819Z,7.60
2018-03-25T08:47:48.100Z,7.10
2018-03-25T08:50:16.334Z,7.53
2018-03-25T08:52:43.827Z,6.40
2018-03-25T08:55:11.312Z,6.47
2018-03-25T08:57:38.838Z,10.33
2018-03-25T09:00:06.330Z,10.50
2018-03-25T09:02:33.793Z,9.50
2018-03-25T09:05:01.299Z,5.57
2018-03-25T09:07:28.782Z,6.10
2018-03-25T09:09:57.022Z,9.33
2018-03-25T09:12:24.514Z,10.77
2018-03-25T09:14:52.763Z,8.50
2018-03-25T09:17:21.010Z,6.37
2018-03-25T09:19:48.485Z,9.17
2018-03-25T09:22:16.038Z,7.57
2018-03-25T09:24:43.501Z,8.23
2018-03-25T09:27:11.001Z,14.70
2018-03-25T09:29:38.467Z,8.90
2018-03-25T09:32:05.933Z,9.50
2018-03-25T09:34:33.441Z,9.20
2018-03-25T09:37:00.982Z,10.67
2018-03-25T09:39:28.539Z,9.13
2018-03-25T09:41:56.037Z,9.40
2018-03-25T09:44:23.498Z,8.20
2018-03-25T09:46:50.998Z,8.83
2018-03-25T09:49:18.465Z,10.20
2018-03-25T09:51:45.935Z,10.03
2018-03-25T09:54:14.165Z,10.57
2018-03-25T09:56:41.859Z,8.10
2018-03-25T09:59:09.426Z,9.90
2018-03-25T10:04:41.462Z,7.50
2018-03-25T10:07:08.862Z,7.53
2018-03-25T10:09:36.319Z,7.47
2018-03-25T10:12:04.577Z,8.47
2018-03-25T10:14:32.034Z,6.03
2018-03-25T10:16:59.494Z,8.13
2018-03-25T10:19:26.967Z,9.17
2018-03-25T10:21:55.192Z,6.60
2018-03-25T10:24:22.666Z,8.10
2018-03-25T10:26:50.240Z,6.83
2018-03-25T10:29:17.707Z,5.93
2018-03-25T10:31:45.926Z,6.43
2018-03-25T10:34:13.408Z,4.73
2018-03-25T10:36:40.891Z,3.57
2018-03-25T10:39:09.116Z,5.37
2018-03-25T10:41:36.606Z,6.40
2018-03-25T10:44:04.161Z,4.03
2018-03-25T10:46:31.621Z,3.90
2018-03-25T10:49:00.001Z,5.40
2018-03-25T10:51:27.630Z,4.33
2018-03-25T10:53:55.119Z,5.00
2018-03-25T10:56:22.667Z,4.40
2018-03-25T10:58:50.127Z,4.30
2018-03-25T11:01:17.589Z,6.17
2018-03-25T11:03:45.049Z,6.30
2018-03-25T11:06:12.510Z,7.70
2018-03-25T11:08:40.753Z,2.97
2018-03-25T11:11:08.340Z,4.87
2018-03-25T11:13:35.806Z,3.20
2018-03-25T11:16:04.036Z,7.23
2018-03-25T11:18:31.502Z,2.23
2018-03-25T11:20:58.992Z,2.23
2018-03-25T11:23:27.222Z,4.10
2018-03-25T11:25:54.694Z,2.40
2018-03-25T11:28:22.174Z,5.33
2018-03-25T11:30:50.408Z,5.57
2018-03-25T11:33:17.988Z,2.80
2018-03-25T11:35:45.454Z,3.00
2018-03-25T11:38:13.714Z,2.97
2018-03-25T11:40:41.193Z,7.20
2018-03-25T11:43:09.439Z,3.83
2018-03-25T11:45:36.909Z,4.40
2018-03-25T11:48:05.975Z,2.70
2018-03-25T11:50:33.449Z,3.07
2018-03-25T11:53:01.735Z,2.67
2018-03-25T11:55:29.962Z,4.50
2018-03-25T11:57:57.422Z,3.17
2018-03-25T12:00:24.898Z,4.33
2018-03-25T12:02:52.378Z,2.43
2018-03-25T12:05:19.839Z,2.80
2018-03-25T12:07:48.100Z,2.40
2018-03-25T12:10:15.578Z,3.43
2018-03-25T12:12:43.805Z,6.73
2018-03-25T12:15:11.277Z,4.87
2018-03-25T12:17:38.841Z,4.20
2018-03-25T12:20:07.062Z,3.17
2018-03-25T12:22:34.532Z,3.57
2018-03-25T12:25:02.012Z,2.27
2018-03-25T12:27:29.526Z,3.60
2018-03-25T12:29:57.043Z,5.77
2018-03-25T12:32:25.290Z,3.57
2018-03-25T12:34:52.778Z,2.20
2018-03-25T12:37:20.248Z,3.10
2018-03-25T12:39:48.708Z,2.40
2018-03-25T12:42:16.172Z,2.57
2018-03-25T12:44:43.679Z,5.67
2018-03-25T12:47:11.890Z,5.37
2018-03-25T12:49:40.311Z,2.67
2018-03-25T12:52:07.810Z,2.70
2018-03-25T12:54:35.399Z,2.17
2018-03-25T12:57:02.858Z,2.43
2018-03-25T12:59:30.399Z,2.30
2018-03-25T13:01:58.766Z,2.57
2018-03-25T13:04:26.222Z,2.23
2018-03-25T13:06:53.682Z,4.97
2018-03-25T13:09:21.969Z,4.50
2018-03-25T13:11:50.233Z,2.20
2018-03-25T13:14:18.628Z,3.57
2018-03-25T13:16:47.566Z,3.33
2018-03-25T13:19:15.033Z,3.30
2018-03-25T13:21:42.485Z,2.23
2018-03-25T13:24:09.967Z,4.30
2018-03-25T13:26:37.422Z,4.80
2018-03-25T13:29:05.652Z,2.67
2018-03-25T13:31:33.130Z,3.77
2018-03-25T13:34:00.587Z,3.10
2018-03-25T13:36:28.159Z,2.87
2018-03-25T13:38:55.630Z,3.47
2018-03-25T13:41:23.141Z,3.07
2018-03-25T13:43:51.381Z,3.03
2018-03-25T13:46:19.615Z,3.20
2018-03-25T13:48:47.083Z,2.03
2018-03-25T13:51:14.638Z,2.17
2018-03-25T13:53:42.245Z,2.33
2018-03-25T13:56:09.699Z,2.77
2018-03-25T13:58:37.160Z,2.73
2018-03-25T14:01:04.625Z,1.87
2018-03-25T14:03:32.848Z,5.90
2018-03-25T14:06:00.313Z,2.83
2018-03-25T14:08:27.932Z,1.77
2018-03-25T14:10:55.386Z,2.10
2018-03-25T14:13:22.847Z,1.53
2018-03-25T14:15:50.338Z,2.27
2018-03-25T14:18:17.822Z,2.60
2018-03-25T14:20:46.042Z,1.73
2018-03-25T14:23:13.519Z,1.60
2018-03-25T14:25:40.982Z,1.27
2018-03-25T14:28:08.435Z,4.50
2018-03-25T14:30:36.047Z,1.97
2018-03-25T14:33:03.506Z,1.57
2018-03-25T14:35:30.962Z,3.23
2018-03-25T14:37:58.431Z,1.57
2018-03-25T14:40:25.895Z,2.10
2018-03-25T14:42:53.351Z,1.87
2018-03-25T14:45:21.599Z,2.50
2018-03-25T14:47:49.067Z,1.53
2018-03-25T14:50:16.523Z,2.40
2018-03-25T14:52:44.759Z,1.27
2018-03-25T14:55:12.992Z,3.20
2018-03-25T14:57:40.450Z,1.03
2018-03-25T15:00:07.919Z,1.07
2018-03-25T15:02:35.384Z,2.30
2018-03-25T15:05:03.611Z,1.70
2018-03-25T15:07:31.095Z,1.77
2018-03-25T15:09:58.552Z,1.20
2018-03-25T15:12:26.069Z,1.83
2018-03-25T15:14:54.294Z,1.60
2018-03-25T15:17:21.754Z,1.90
2018-03-25T15:19:49.992Z,2.03
2018-03-25T15:22:18.255Z,1.40
2018-03-25T15:24:45.705Z,1.40
2018-03-25T15:27:13.162Z,1.87
2018-03-25T15:29:40.641Z,1.60
2018-03-25T15:32:08.112Z,1.73
2018-03-25T15:34:35.633Z,1.80
2018-03-25T15:37:03.145Z,2.57
2018-03-25T15:39:31.386Z,2.20
2018-03-25T15:41:58.859Z,1.47
2018-03-25T15:44:26.325Z,1.57
2018-03-25T15:46:54.587Z,1.27
2018-03-25T15:49:22.042Z,2.13
2018-03-25T15:51:49.516Z,1.83
2018-03-25T15:54:17.733Z,1.93
2018-03-25T15:56:45.190Z,2.40
2018-03-25T15:59:12.674Z,1.80
2018-03-25T16:01:40.184Z,1.40
2018-03-25T16:04:07.644Z,2.10
2018-03-25T16:06:35.122Z,1.80
2018-03-25T16:09:02.588Z,3.70
2018-03-25T16:11:30.060Z,1.77
2018-03-25T16:13:57.532Z,1.57
2018-03-25T16:16:25.844Z,1.43
2018-03-25T16:18:53.299Z,1.73
2018-03-25T16:21:20.793Z,1.60
2018-03-25T16:23:48.250Z,3.30
2018-03-25T16:26:16.479Z,2.30
2018-03-25T16:28:43.996Z,2.77
2018-03-25T16:31:11.459Z,2.17
2018-03-25T16:33:39.004Z,3.90
2018-03-25T16:36:06.479Z,2.03
2018-03-25T16:38:34.712Z,2.30
2018-03-25T16:41:02.176Z,2.67
2018-03-25T16:43:29.643Z,3.43
2018-03-25T16:45:57.195Z,2.10
2018-03-25T16:48:24.666Z,2.20
2018-03-25T16:50:52.264Z,1.70
2018-03-25T16:53:19.718Z,2.00
2018-03-25T16:55:47.176Z,1.90
2018-03-25T16:58:14.792Z,1.97
2018-03-25T17:00:42.242Z,1.60
2018-03-25T17:03:09.694Z,4.03
2018-03-25T17:05:37.176Z,1.13
2018-03-25T17:08:05.399Z,0.90
2018-03-25T17:10:32.849Z,1.37
2018-03-25T17:13:00.332Z,1.10
2018-03-25T17:15:27.789Z,1.00
2018-03-25T17:17:55.255Z,0.90
2018-03-25T17:20:22.728Z,1.03
2018-03-25T17:22:50.957Z,1.20
2018-03-25T17:25:18.414Z,1.17
2018-03-25T17:27:45.892Z,0.80
2018-03-25T17:30:13.356Z,0.80
2018-03-25T17:32:40.812Z,2.43
2018-03-25T17:35:08.274Z,1.20
2018-03-25T17:37:36.827Z,1.33
2018-03-25T17:40:04.281Z,0.97
2018-03-25T17:42:31.755Z,1.40
2018-03-25T17:44:59.214Z,2.37
2018-03-25T17:47:26.668Z,2.10
2018-03-25T17:49:54.151Z,1.50
2018-03-25T17:52:21.615Z,3.00
2018-03-25T17:54:49.068Z,3.40
2018-03-25T17:57:16.550Z,3.87
2018-03-25T17:59:44.008Z,3.93
2018-03-25T18:02:11.471Z,4.10
2018-03-25T18:04:39.161Z,3.17
2018-03-25T18:07:07.509Z,2.90
2018-03-25T18:09:34.952Z,4.43
2018-03-25T18:12:02.416Z,4.97
2018-03-25T18:14:29.879Z,4.10
2018-03-25T18:16:58.103Z,4.80
2018-03-25T18:19:26.339Z,4.10
2018-03-25T18:21:53.789Z,5.33
2018-03-25T18:24:21.315Z,5.37
2018-03-25T18:26:48.735Z,5.80
2018-03-25T18:29:16.233Z,6.87
2018-03-25T18:31:43.689Z,4.90
2018-03-25T18:34:11.202Z,6.70
2018-03-25T18:36:38.651Z,4.87
2018-03-25T18:39:06.115Z,4.27
2018-03-25T18:41:34.363Z,4.10
2018-03-25T18:44:01.810Z,3.77
2018-03-25T18:46:29.262Z,8.00
2018-03-25T18:48:56.798Z,5.63
2018-03-25T18:51:24.286Z,4.63
2018-03-25T18:53:51.751Z,5.50
2018-03-25T18:56:19.475Z,4.93
2018-03-25T18:58:47.187Z,4.93
2018-03-25T19:01:14.858Z,4.83
2018-03-25T19:03:42.560Z,4.10
2018-03-25T19:06:10.211Z,3.03
2018-03-25T19:08:37.918Z,4.47
2018-03-25T19:11:06.179Z,4.13
2018-03-25T19:13:33.634Z,4.43
2018-03-25T19:16:01.107Z,4.40
2018-03-25T19:18:28.827Z,5.20
2018-03-25T19:20:56.292Z,5.03
2018-03-25T19:23:23.766Z,5.53
2018-03-25T19:25:51.242Z,3.77
2018-03-25T19:28:18.699Z,7.57
2018-03-25T19:30:46.928Z,3.60
2018-03-25T19:33:14.393Z,4.07
2018-03-25T19:35:41.851Z,5.37
2018-03-25T19:38:09.332Z,7.33
2018-03-25T19:40:36.876Z,4.30
2018-03-25T19:43:04.277Z,4.07
2018-03-25T19:45:31.727Z,4.57
2018-03-25T19:48:00.170Z,4.67
2018-03-25T19:50:27.655Z,4.60
2018-03-25T19:52:55.879Z,6.17
2018-03-25T19:55:23.346Z,3.27
2018-03-25T19:57:50.806Z,4.73
2018-03-25T20:00:18.303Z,3.60
2018-03-25T20:02:45.771Z,4.30
2018-03-25T20:05:13.223Z,6.33
2018-03-25T20:07:40.679Z,4.60
2018-03-25T20:10:08.147Z,3.60
2018-03-25T20:12:35.599Z,8.60
2018-03-25T20:15:03.057Z,5.30
2018-03-25T20:17:30.526Z,5.77
2018-03-25T20:19:57.979Z,5.57
2018-03-25T20:22:25.433Z,5.77
2018-03-25T20:24:52.912Z,4.93
2018-03-25T20:27:20.363Z,4.20
2018-03-25T20:29:47.831Z,4.73
2018-03-25T20:32:15.312Z,7.03
2018-03-25T20:34:43.021Z,3.43
2018-03-25T20:37:10.475Z,4.93
2018-03-25T20:39:37.954Z,5.70
2018-03-25T20:42:05.409Z,3.67
2018-03-25T20:44:32.864Z,6.23
2018-03-25T20:47:00.335Z,6.20
2018-03-25T20:49:27.800Z,3.47
2018-03-25T20:51:55.273Z,3.60
2018-03-25T20:54:22.899Z,4.57
2018-03-25T20:56:50.368Z,3.80
2018-03-25T20:59:17.833Z,3.20
2018-03-25T21:01:45.305Z,6.50
2018-03-25T21:04:13.539Z,5.17
2018-03-25T21:06:41.002Z,6.10
2018-03-25T21:09:08.485Z,3.20
2018-03-25T21:11:36.714Z,7.00
2018-03-25T21:14:04.171Z,5.33
2018-03-25T21:16:31.640Z,3.00
2018-03-25T21:18:59.104Z,5.07
2018-03-25T21:21:28.878Z,6.03
2018-03-25T21:23:56.499Z,5.33
2018-03-25T21:26:24.730Z,6.97
2018-03-25T21:28:52.340Z,9.50
2018-03-25T21:31:19.863Z,5.13
2018-03-25T21:33:47.348Z,6.53
2018-03-25T21:36:15.592Z,4.47
2018-03-25T21:38:43.066Z,5.33
2018-03-25T21:41:11.295Z,4.13
2018-03-25T21:43:38.750Z,5.83
2018-03-25T21:46:06.446Z,5.63
2018-03-25T21:48:33.920Z,5.60
2018-03-25T21:51:02.185Z,7.57
2018-03-25T21:53:29.659Z,5.30
2018-03-25T21:55:57.124Z,4.40
2018-03-25T21:58:24.580Z,5.43
2018-03-25T22:00:52.092Z,4.00
2018-03-25T22:03:19.555Z,5.23
2018-03-25T22:05:47.099Z,6.73
2018-03-25T22:08:14.580Z,3.60
2018-03-25T22:10:42.064Z,5.60
2018-03-25T22:13:09.575Z,5.57
2018-03-25T22:15:37.241Z,4.73
2018-03-25T22:18:04.699Z,4.70
2018-03-25T22:20:32.257Z,5.47
2018-03-25T22:22:59.723Z,4.50
2018-03-25T22:25:27.943Z,5.03
2018-03-25T22:27:55.398Z,5.77
2018-03-25T22:30:22.880Z,6.60
2018-03-25T22:32:50.455Z,5.77
2018-03-25T22:35:18.697Z,9.23
2018-03-25T22:37:46.166Z,8.73
2018-03-25T22:40:13.628Z,4.00
2018-03-25T22:42:41.095Z,6.47
2018-03-25T22:45:08.572Z,3.67
2018-03-25T22:47:36.794Z,7.27
2018-03-25T22:50:04.251Z,7.87
2018-03-25T22:52:31.727Z,4.57
2018-03-25T22:54:59.183Z,5.20
2018-03-25T22:57:26.637Z,4.37
2018-03-25T22:59:54.108Z,4.67
2018-03-25T23:02:21.565Z,4.97
2018-03-25T23:04:49.015Z,6.00
2018-03-25T23:07:16.513Z,7.60
2018-03-25T23:09:43.968Z,6.27
2018-03-25T23:12:11.440Z,7.00
2018-03-25T23:14:38.899Z,6.97
2018-03-25T23:17:06.358Z,4.90
2018-03-25T23:19:33.821Z,4.73
2018-03-25T23:22:01.299Z,4.17
2018-03-25T23:24:28.756Z,5.80
2018-03-25T23:26:56.215Z,3.90
2018-03-25T23:29:23.680Z,5.60
2018-03-25T23:31:51.147Z,6.60
2018-03-25T23:34:18.599Z,5.43
2018-03-25T23:36:46.842Z,3.90
2018-03-25T23:39:14.308Z,5.87
2018-03-25T23:41:41.783Z,4.83
2018-03-25T23:44:09.391Z,5.03
2018-03-25T23:46:36.851Z,10.70
2018-03-25T23:49:04.307Z,3.70
2018-03-25T23:51:31.784Z,4.10
2018-03-25T23:53:59.242Z,5.60
2018-03-25T23:56:26.705Z,3.13
2018-03-25T23:58:54.174Z,6.40
